Zarephath, New Jersey
Current Conditions -  °F | °C
As of 11:53 PM on Saturday 25 Oct 2014 (Local Time) from KSMQ Reporting Station
Few Clouds Few Clouds  
Wind Chill: 61°   Ceiling: Unl
Heat Index: 61°   Visibility: 10mi
Dew Point: 44°   Wind: 5mph
Humidity: 54%   Direction: NA
Pressure: 29.56"   Gusts: NA
Location:  40.54°N, 74.57°W
Report Text: KSMQ 260353Z AUTO VRB04KT 10SM FEW095 16/07 A2956 RMK AO2 SLP010 T01610067
Loading
Personal Weather Stations






























Interactive Weather Map
Tropical Storm Tracking
New forecast layout! Learn more

10-Day Weather Forecast

Advertisements
Track Severe Weather on mobile